Time;durP1;ratioP1;P1;durP2;ratioP2;P2;SDS_P1;SDS_P2;PMS_P1;PMS_P2;Temp;Humidity;BMP_temperature;BMP_pressure;BME280_temperature;BME280_humidity;BME280_pressure;Samples;Min_cycle;Max_cycle;Signal;HPM_P1;HPM_P2
2022/10/05 00:01:46;;;;;;;;;17.25;12.25;;;;;17.84;57.66;101363.84;5092003;27;45933;-47
2022/10/05 00:04:23;;;;;;;;;20.50;15.25;;;;;17.85;58.14;101356.78;5095876;27;45289;-49
2022/10/05 00:06:56;;;;;;;;;12.50;12.00;;;;;17.82;58.13;101357.75;5069931;27;45439;-49
2022/10/05 00:09:21;;;;;;;;;15.25;13.00;;;;;17.80;58.10;101359.63;5093266;27;45233;-46
2022/10/05 00:11:48;;;;;;;;;16.00;15.00;;;;;17.76;58.34;101350.13;5083181;27;61178;-44
2022/10/05 00:14:19;;;;;;;;;15.25;13.00;;;;;17.75;58.39;101353.69;5094829;27;45419;-43
2022/10/05 00:16:45;;;;;;;;;19.25;14.75;;;;;17.72;58.54;101348.53;5088404;27;45345;-43
2022/10/05 00:19:34;;;;;;;;;18.25;15.50;;;;;17.70;58.54;101349.53;5078105;27;45186;-45
2022/10/05 00:22:12;;;;;;;;;11.00;9.50;;;;;17.67;58.63;101347.03;5094401;27;45451;-44
2022/10/05 00:24:38;;;;;;;;;14.75;12.75;;;;;17.64;58.36;101343.59;5068363;27;45462;-44
2022/10/05 00:27:16;;;;;;;;;16.25;13.50;;;;;17.63;58.94;101341.88;5071884;27;47395;-44
2022/10/05 00:29:41;;;;;;;;;16.75;13.25;;;;;17.62;58.80;101340.19;5101175;27;45298;-43
2022/10/05 00:32:08;;;;;;;;;18.75;15.50;;;;;17.58;58.88;101332.44;5084138;27;46302;-45
2022/10/05 00:34:34;;;;;;;;;14.75;12.25;;;;;17.57;58.98;101336.88;5073255;27;45468;-47
2022/10/05 00:36:59;;;;;;;;;17.00;14.00;;;;;17.55;58.98;101335.25;5086338;27;66898;-44
2022/10/05 00:39:24;;;;;;;;;19.00;15.75;;;;;17.54;59.27;101341.47;5084310;27;45529;-46
2022/10/05 00:42:14;;;;;;;;;15.75;13.75;;;;;17.52;59.26;101338.88;5067221;27;56045;-47
2022/10/05 00:45:03;;;;;;;;;13.25;12.75;;;;;17.50;59.39;101331.97;5100587;27;45284;-46
2022/10/05 00:47:53;;;;;;;;;19.25;16.75;;;;;17.48;59.32;101328.53;5072394;27;46522;-45
2022/10/05 00:50:47;;;;;;;;;14.50;13.00;;;;;17.44;59.26;101328.66;5078692;27;45613;-46
2022/10/05 00:53:46;;;;;;;;;16.75;14.00;;;;;17.40;59.47;101327.06;5065707;27;45244;-47
2022/10/05 00:56:11;;;;;;;;;18.50;14.00;;;;;17.37;59.50;101321.94;5098638;27;45443;-43
2022/10/05 00:59:11;;;;;;;;;13.33;13.00;;;;;17.35;59.61;101321.16;5079053;28;45989;-48
2022/10/05 01:01:41;;;;;;;;;19.50;17.00;;;;;17.33;59.38;101322.16;5087278;27;45340;-51
2022/10/05 01:04:12;;;;;;;;;13.75;13.00;;;;;17.29;59.53;101324.06;5075431;27;45279;-52
2022/10/05 01:06:40;;;;;;;;;18.00;15.00;;;;;17.26;59.44;101326.84;5090956;27;45403;-53
2022/10/05 01:09:34;;;;;;;;;14.50;13.25;;;;;17.22;59.70;101334.06;5094460;27;45536;-48
2022/10/05 01:12:05;;;;;;;;;14.75;12.50;;;;;17.17;59.59;101335.22;5096710;27;45613;-47
2022/10/05 01:14:50;;;;;;;;;16.25;13.00;;;;;17.14;59.68;101337.97;5099479;27;45508;-47
2022/10/05 01:17:24;;;;;;;;;13.75;13.50;;;;;17.08;59.58;101331.19;5097691;27;45301;-45
2022/10/05 01:20:32;;;;;;;;;16.75;11.00;;;;;17.06;59.63;101328.59;5095363;27;45489;-44
2022/10/05 01:23:35;;;;;;;;;14.00;13.50;;;;;17.06;59.94;101335.69;5094247;27;45283;-45
2022/10/05 01:26:11;;;;;;;;;16.25;13.75;;;;;17.04;59.78;101329.63;5097215;27;45434;-43
2022/10/05 01:28:40;;;;;;;;;12.75;10.50;;;;;17.00;59.61;101323.59;5093072;27;45481;-44
2022/10/05 01:31:20;;;;;;;;;12.50;11.00;;;;;17.01;59.98;101322.66;5078675;27;45476;-44
2022/10/05 01:33:54;;;;;;;;;13.75;10.75;;;;;16.99;59.86;101329.81;5080148;27;46172;-45
2022/10/05 01:36:33;;;;;;;;;13.50;11.50;;;;;16.98;59.78;101327.22;5071401;27;45425;-44
2022/10/05 01:39:16;;;;;;;;;10.75;9.00;;;;;16.95;59.86;101320.31;5075747;27;45470;-43
2022/10/05 01:41:46;;;;;;;;;12.75;10.00;;;;;16.95;59.82;101316.81;5080797;27;46261;-43
2022/10/05 01:44:15;;;;;;;;;11.25;9.00;;;;;16.93;60.16;101311.59;5074890;27;45347;-44
2022/10/05 01:47:03;;;;;;;;;10.50;9.50;;;;;16.95;60.10;101314.16;5069128;27;45395;-48
2022/10/05 01:50:01;;;;;;;;;12.00;10.25;;;;;16.91;60.04;101305.50;5090525;27;45450;-45
2022/10/05 01:52:56;;;;;;;;;10.25;9.75;;;;;16.91;59.71;101300.22;5079065;28;46306;-44
2022/10/05 01:55:34;;;;;;;;;10.00;10.00;;;;;16.87;59.75;101303.91;5076828;27;45481;-44
2022/10/05 01:58:28;;;;;;;;;12.00;10.50;;;;;16.84;59.99;101298.78;5073745;27;45479;-44
2022/10/05 02:01:00;;;;;;;;;12.00;8.00;;;;;16.84;59.89;101301.44;5093827;27;45513;-49
2022/10/05 02:03:31;;;;;;;;;10.00;9.00;;;;;16.85;60.04;101305.78;5073059;27;46160;-46
2022/10/05 02:06:19;;;;;;;;;10.00;10.00;;;;;16.85;59.88;101295.19;5088362;27;45441;-48
2022/10/05 02:09:00;;;;;;;;;15.00;7.00;;;;;16.86;60.04;101291.63;5070597;27;45303;-50
2022/10/05 02:11:25;;;;;;;;;9.25;7.50;;;;;16.86;59.88;101291.63;5077056;27;45495;-49
2022/10/05 02:14:02;;;;;;;;;8.00;7.75;;;;;16.86;59.92;101286.34;5085545;27;75444;-49
2022/10/05 02:16:40;;;;;;;;;8.50;8.00;;;;;16.88;59.99;101295.06;5074698;27;45573;-49
2022/10/05 02:19:22;;;;;;;;;6.50;6.25;;;;;16.90;59.92;101285.28;5072398;27;45420;-49
2022/10/05 02:21:54;;;;;;;;;9.25;8.25;;;;;16.93;59.71;101284.28;5081761;27;45636;-48
2022/10/05 02:24:28;;;;;;;;;7.00;6.00;;;;;16.95;59.59;101280.66;5070173;27;45546;-46
2022/10/05 02:26:55;;;;;;;;;7.75;6.00;;;;;16.96;59.17;101274.41;5078150;27;45367;-45
2022/10/05 02:29:22;;;;;;;;;6.25;6.00;;;;;17.00;59.47;101270.72;5091516;27;45477;-48
2022/10/05 02:31:53;;;;;;;;;7.00;7.00;;;;;17.02;59.37;101270.66;5067579;27;45191;-45
2022/10/05 02:34:26;;;;;;;;;7.75;5.00;;;;;17.03;59.59;101262.66;5067983;28;47320;-44
2022/10/05 02:37:00;;;;;;;;;7.25;6.50;;;;;17.06;59.35;101259.84;5096999;27;45720;-44
2022/10/05 02:39:31;;;;;;;;;7.00;4.50;;;;;17.06;59.05;101249.28;5081331;27;45218;-45
2022/10/05 02:42:27;;;;;;;;;5.00;5.00;;;;;17.08;59.21;101249.22;5075717;27;45311;-46
2022/10/05 02:45:21;;;;;;;;;6.75;5.50;;;;;17.07;58.97;101256.28;5076879;28;45547;-47
2022/10/05 02:48:00;;;;;;;;;6.25;6.00;;;;;17.08;58.93;101247.41;5086971;27;45925;-46
2022/10/05 02:50:31;;;;;;;;;4.25;4.25;;;;;17.09;59.04;101250.94;5084700;27;45384;-45
2022/10/05 02:53:03;;;;;;;;;4.75;4.75;;;;;17.12;58.60;101244.63;5093764;27;45332;-46
2022/10/05 02:55:50;;;;;;;;;6.50;5.00;;;;;17.12;58.65;101245.47;5074891;27;46689;-50
2022/10/05 02:58:21;;;;;;;;;5.00;5.00;;;;;17.14;58.58;101242.78;5085957;27;45559;-47
2022/10/05 03:00:53;;;;;;;;;6.00;5.50;;;;;17.13;58.79;101244.56;5075561;27;45237;-46
2022/10/05 03:03:36;;;;;;;;;5.50;3.00;;;;;17.15;58.81;101239.22;5096601;27;45260;-50
2022/10/05 03:06:03;;;;;;;;;6.00;4.25;;;;;17.13;58.79;101244.56;5094984;27;45594;-49
2022/10/05 03:08:35;;;;;;;;;4.00;3.50;;;;;17.12;58.68;101248.13;5061024;27;45784;-49
2022/10/05 03:11:01;;;;;;;;;6.25;4.00;;;;;17.12;58.52;101248.13;5065334;27;45627;-46
2022/10/05 03:13:33;;;;;;;;;6.33;5.00;;;;;17.14;58.34;101245.41;5086157;27;45511;-49
2022/10/05 03:16:01;;;;;;;;;4.00;4.00;;;;;17.14;58.38;101243.66;5077731;27;47130;-48
2022/10/05 03:18:55;;;;;;;;;2.00;1.50;;;;;17.16;58.51;101243.59;5095979;27;45312;-43
2022/10/05 03:21:59;;;;;;;;;5.25;4.25;;;;;17.15;58.52;101239.22;5080965;27;45411;-44
2022/10/05 03:24:44;;;;;;;;;3.00;3.00;;;;;17.16;58.40;101231.22;5090006;27;45392;-47
2022/10/05 03:27:28;;;;;;;;;4.75;4.00;;;;;17.16;58.17;101228.56;5089938;27;45381;-44
2022/10/05 03:30:03;;;;;;;;;3.25;3.25;;;;;17.16;58.47;101225.06;5067773;27;45553;-45
2022/10/05 03:32:42;;;;;;;;;4.50;4.50;;;;;17.16;58.13;101225.91;5081174;27;45577;-46
2022/10/05 03:35:13;;;;;;;;;5.75;4.50;;;;;17.15;58.28;101218.91;5047940;28;46954;-46
2022/10/05 03:37:48;;;;;;;;;4.75;4.00;;;;;17.13;58.05;101219.91;5050443;28;47197;-48
2022/10/05 03:40:36;;;;;;;;;4.25;3.00;;;;;17.10;58.18;101218.25;5049363;28;45785;-46
2022/10/05 03:43:05;;;;;;;;;6.75;4.25;;;;;17.06;58.02;101217.53;5064118;28;45367;-44
2022/10/05 03:45:53;;;;;;;;;6.25;5.00;;;;;17.04;58.04;101215.91;5040400;28;45423;-44
2022/10/05 03:48:24;;;;;;;;;4.75;4.25;;;;;17.01;58.22;101219.53;5054062;28;45574;-44
2022/10/05 03:50:59;;;;;;;;;5.50;4.00;;;;;17.00;58.20;101217.00;5027082;28;45465;-45
2022/10/05 03:53:28;;;;;;;;;5.00;5.00;;;;;16.99;58.22;101213.47;5059404;28;45256;-46
2022/10/05 03:56:03;;;;;;;;;8.25;5.00;;;;;16.96;58.10;101212.75;5039703;28;45427;-44
2022/10/05 03:58:38;;;;;;;;;8.50;5.25;;;;;16.93;58.22;101210.25;5038500;28;47442;-45
2022/10/05 04:01:07;;;;;;;;;7.25;6.00;;;;;16.88;58.24;101213.13;5052812;28;45526;-44
2022/10/05 04:03:34;;;;;;;;;6.25;5.00;;;;;16.85;58.31;101213.25;5056837;28;45530;-44
2022/10/05 04:06:22;;;;;;;;;4.50;4.25;;;;;16.83;58.33;101212.44;5059064;28;45315;-43
2022/10/05 04:08:55;;;;;;;;;3.00;2.00;;;;;16.80;58.22;101218.72;5044380;28;46160;-45
2022/10/05 04:11:38;;;;;;;;;8.00;6.00;;;;;16.82;58.26;101221.28;5056858;28;45667;-45
2022/10/05 04:14:05;;;;;;;;;6.00;6.00;;;;;16.80;58.54;101224.00;5054790;28;45190;-43
2022/10/05 04:16:34;;;;;;;;;8.50;6.00;;;;;16.78;58.21;101217.06;5051155;28;45227;-45
2022/10/05 04:19:20;;;;;;;;;8.25;6.00;;;;;16.77;58.19;101212.69;5061148;28;45458;-43
2022/10/05 04:22:02;;;;;;;;;6.00;5.00;;;;;16.75;58.63;101217.19;5054636;28;45299;-47
2022/10/05 04:24:45;;;;;;;;;6.50;5.00;;;;;16.72;58.53;101218.22;5043588;28;45335;-44
2022/10/05 04:27:21;;;;;;;;;6.75;6.50;;;;;16.70;58.32;101207.69;5056345;28;45506;-43
2022/10/05 04:29:58;;;;;;;;;6.25;6.00;;;;;16.70;58.83;101212.13;5054643;28;45347;-44
2022/10/05 04:32:34;;;;;;;;;8.50;7.00;;;;;16.68;58.25;101204.28;5052480;28;45807;-43
2022/10/05 04:35:21;;;;;;;;;5.50;5.25;;;;;16.66;58.39;101203.50;5054388;28;45519;-46
2022/10/05 04:38:02;;;;;;;;;4.00;4.00;;;;;16.62;58.50;101199.25;5065775;28;46250;-44
2022/10/05 04:40:34;;;;;;;;;6.00;5.25;;;;;16.60;58.45;101194.97;5070891;28;45348;-43
2022/10/05 04:43:19;;;;;;;;;7.00;6.00;;;;;16.58;58.84;101199.47;5066295;28;45248;-46
2022/10/05 04:45:44;;;;;;;;;5.00;5.00;;;;;16.55;58.50;101202.25;5073027;27;47333;-46
2022/10/05 04:48:15;;;;;;;;;6.50;5.50;;;;;16.51;58.69;101199.72;5074856;27;46469;-46
2022/10/05 04:50:57;;;;;;;;;5.00;5.00;;;;;16.48;58.74;101207.81;5074028;27;46444;-48
2022/10/05 04:53:30;;;;;;;;;4.00;4.00;;;;;16.46;58.97;101196.44;5078171;28;45356;-44
2022/10/05 04:56:00;;;;;;;;;9.00;6.75;;;;;16.46;58.55;101191.16;5051850;28;45420;-46
2022/10/05 04:58:48;;;;;;;;;7.00;6.25;;;;;16.45;58.62;101191.22;5078954;27;45376;-44
2022/10/05 05:01:40;;;;;;;;;9.25;6.75;;;;;16.43;58.85;101190.44;5073442;27;45450;-44
2022/10/05 05:04:26;;;;;;;;;6.25;5.50;;;;;16.39;58.92;101184.41;5080083;27;45367;-45
2022/10/05 05:07:09;;;;;;;;;5.00;4.00;;;;;16.38;58.89;101190.66;5065265;28;45336;-45
2022/10/05 05:09:45;;;;;;;;;6.25;5.25;;;;;16.36;58.82;101188.97;5074053;28;45425;-45
2022/10/05 05:12:19;;;;;;;;;5.00;4.00;;;;;16.35;59.07;101176.72;5079532;28;46121;-45
2022/10/05 05:15:13;;;;;;;;;6.25;5.00;;;;;16.34;59.18;101178.47;5071237;28;45926;-46
2022/10/05 05:17:51;;;;;;;;;6.00;5.50;;;;;16.31;59.00;101178.63;5061533;28;45395;-47
2022/10/05 05:20:40;;;;;;;;;4.00;4.00;;;;;16.27;58.81;101177.03;5081132;28;45389;-45
2022/10/05 05:23:18;;;;;;;;;8.00;6.00;;;;;16.26;59.28;101176.19;5066815;28;45265;-44
2022/10/05 05:26:01;;;;;;;;;5.00;5.00;;;;;16.25;59.08;101185.03;5073817;27;45438;-46
2022/10/05 05:28:50;;;;;;;;;6.00;6.00;;;;;16.22;59.06;101174.63;5076181;28;45430;-45
2022/10/05 05:31:25;;;;;;;;;5.00;5.00;;;;;16.19;59.09;101173.88;5072832;27;45335;-45
2022/10/05 05:34:17;;;;;;;;;8.75;6.00;;;;;16.14;59.05;101180.22;5066773;28;45295;-44
2022/10/05 05:36:55;;;;;;;;;8.00;4.75;;;;;16.11;59.48;101166.28;5093183;27;45486;-45
2022/10/05 05:39:28;;;;;;;;;6.25;4.50;;;;;16.10;59.30;101165.44;5097057;27;46004;-47
2022/10/05 05:42:19;;;;;;;;;10.25;8.25;;;;;16.10;59.29;101167.22;5072974;27;46097;-47
2022/10/05 05:44:49;;;;;;;;;6.00;6.00;;;;;16.09;59.44;101157.56;5069170;27;46419;-44
2022/10/05 05:47:34;;;;;;;;;5.75;5.75;;;;;16.08;59.65;101164.66;5087480;27;45390;-44
2022/10/05 05:50:26;;;;;;;;;7.50;6.00;;;;;16.07;59.24;101162.91;5081213;27;45475;-45
2022/10/05 05:52:59;;;;;;;;;6.50;6.25;;;;;16.04;59.41;101157.78;5070887;27;45432;-45
2022/10/05 05:55:39;;;;;;;;;7.00;6.25;;;;;16.04;59.39;101155.16;5083198;27;48171;-45
2022/10/05 05:58:14;;;;;;;;;16.00;7.50;;;;;16.06;59.65;101157.69;5072883;27;45363;-45
2022/10/05 06:01:15;;;;;;;;;11.00;9.75;;;;;16.04;59.69;101164.84;5081992;27;45505;-44
2022/10/05 06:03:53;;;;;;;;;9.75;9.50;;;;;16.03;59.77;101163.13;5039021;27;45696;-45
2022/10/05 06:06:22;;;;;;;;;10.75;10.75;;;;;16.01;59.41;101160.56;5091651;27;45601;-45
2022/10/05 06:09:00;;;;;;;;;10.00;8.00;;;;;16.03;59.58;101165.78;5077261;27;45550;-44
2022/10/05 06:11:52;;;;;;;;;14.00;8.25;;;;;16.02;59.32;101162.25;5067457;27;45426;-44
2022/10/05 06:14:26;;;;;;;;;8.75;8.75;;;;;16.03;59.50;101161.34;5079927;27;45979;-45
2022/10/05 06:17:13;;;;;;;;;11.00;9.00;;;;;16.03;59.44;101160.50;5079005;27;47468;-43
2022/10/05 06:19:39;;;;;;;;;7.75;7.00;;;;;16.02;59.80;101158.75;5076345;27;45973;-45
2022/10/05 06:22:11;;;;;;;;;6.50;5.50;;;;;16.02;59.63;101159.59;5089477;27;61675;-45
2022/10/05 06:24:44;;;;;;;;;12.75;10.75;;;;;16.03;59.74;101157.84;5078983;27;45480;-43
2022/10/05 06:27:28;;;;;;;;;8.00;7.00;;;;;16.02;59.45;101156.97;5073631;27;47039;-44
2022/10/05 06:30:12;;;;;;;;;12.00;9.00;;;;;16.01;59.50;101162.34;5095556;27;45772;-47
2022/10/05 06:32:46;;;;;;;;;8.50;7.00;;;;;16.01;59.63;101163.19;5093030;27;45473;-46
2022/10/05 06:35:30;;;;;;;;;7.25;5.00;;;;;16.01;59.44;101167.63;5075231;27;45541;-44
2022/10/05 06:38:08;;;;;;;;;8.50;6.75;;;;;16.00;59.80;101171.19;5095842;27;46002;-44
2022/10/05 06:40:56;;;;;;;;;8.50;6.00;;;;;15.98;59.52;101160.69;5082040;27;45994;-43
2022/10/05 06:43:34;;;;;;;;;6.25;5.75;;;;;15.98;59.49;101171.25;5076564;27;45354;-44
2022/10/05 06:46:08;;;;;;;;;6.00;6.00;;;;;15.97;59.73;101166.00;5074672;27;45281;-43
2022/10/05 06:48:53;;;;;;;;;7.00;6.75;;;;;15.97;59.70;101166.91;5074173;27;45463;-42
2022/10/05 06:51:45;;;;;;;;;7.00;5.75;;;;;15.95;59.39;101155.53;5088240;27;45694;-44
2022/10/05 06:54:19;;;;;;;;;9.50;7.00;;;;;15.94;59.35;101159.94;5087971;27;45403;-44
2022/10/05 06:57:02;;;;;;;;;9.75;7.75;;;;;15.96;59.52;101153.75;5099750;27;45537;-44
2022/10/05 06:59:45;;;;;;;;;9.25;8.50;;;;;15.97;59.95;101158.09;5089285;27;46055;-44
2022/10/05 07:02:29;;;;;;;;;12.00;8.75;;;;;15.98;59.80;101151.91;5069033;27;47311;-43
2022/10/05 07:05:19;;;;;;;;;9.25;8.25;;;;;15.99;59.82;101159.75;5096653;27;45411;-46
2022/10/05 07:07:51;;;;;;;;;15.75;10.50;;;;;16.01;59.58;101151.78;5084060;27;45367;-43
2022/10/05 07:10:28;;;;;;;;;16.00;11.00;;;;;16.01;59.64;101149.16;5067506;27;45470;-46
2022/10/05 07:13:15;;;;;;;;;11.00;10.50;;;;;16.02;59.75;101159.59;5099918;27;45439;-45
2022/10/05 07:15:58;;;;;;;;;13.25;9.25;;;;;16.03;60.03;101163.13;5087933;27;45335;-42
2022/10/05 07:18:35;;;;;;;;;15.00;11.25;;;;;16.04;60.10;101159.56;5077969;27;45587;-46
2022/10/05 07:21:34;;;;;;;;;9.50;8.50;;;;;16.06;60.07;101165.63;5087843;27;46081;-46
2022/10/05 07:24:44;;;;;;;;;12.25;10.50;;;;;16.07;60.10;101170.84;5075268;27;45861;-47
2022/10/05 07:27:22;;;;;;;;;9.25;8.50;;;;;16.08;60.18;101172.56;5032530;28;45537;-45
2022/10/05 07:29:56;;;;;;;;;10.25;8.50;;;;;16.10;60.09;101176.00;5070512;28;45422;-43
2022/10/05 07:32:49;;;;;;;;;8.25;8.25;;;;;16.09;60.41;101178.69;5081319;27;45399;-44
2022/10/05 07:38:19;;;;;;;;;15.50;8.75;;;;;16.16;60.30;101181.94;5099965;27;45355;-44
2022/10/05 07:40:56;;;;;;;;;11.50;10.00;;;;;16.17;60.36;101191.59;5060820;28;45687;-46
2022/10/05 07:43:41;;;;;;;;;9.00;9.00;;;;;16.17;60.52;101189.78;5077797;28;45339;-46
2022/10/05 07:46:17;;;;;;;;;12.75;9.75;;;;;16.20;60.41;101196.72;5073682;27;45363;-44
2022/10/05 07:49:02;;;;;;;;;13.00;11.25;;;;;16.21;60.52;101195.81;5067362;28;45224;-45
2022/10/05 07:51:29;;;;;;;;;15.75;12.25;;;;;16.24;60.44;101196.53;5096822;27;45223;-46
2022/10/05 07:54:22;;;;;;;;;11.75;10.00;;;;;16.29;60.21;101201.63;5081535;27;46133;-43
2022/10/05 07:57:00;;;;;;;;;10.75;7.50;;;;;16.31;60.18;101197.97;5025450;28;45817;-46
2022/10/05 07:59:35;;;;;;;;;14.75;11.00;;;;;16.32;60.37;101204.09;5081059;27;45529;-44
2022/10/05 08:02:10;;;;;;;;;14.50;11.50;;;;;16.32;60.38;101202.34;5074185;27;45277;-45
2022/10/05 08:04:57;;;;;;;;;9.25;9.00;;;;;16.37;60.35;101199.47;5100056;27;46266;-46
2022/10/05 08:07:23;;;;;;;;;12.25;10.00;;;;;16.39;60.35;101207.34;5078061;27;47169;-44
2022/10/05 08:09:58;;;;;;;;;18.50;13.75;;;;;16.41;60.05;101200.22;5098751;27;69330;-45
2022/10/05 08:12:34;;;;;;;;;9.00;8.00;;;;;16.47;60.27;101208.72;5067331;27;46350;-43
2022/10/05 08:15:19;;;;;;;;;14.00;11.25;;;;;16.53;60.04;101202.31;5099369;27;45420;-44
2022/10/05 08:17:47;;;;;;;;;6.50;5.50;;;;;16.60;60.15;101200.25;5064069;27;45318;-45
2022/10/05 08:20:16;;;;;;;;;13.50;10.00;;;;;16.63;60.07;101203.63;5099245;27;45338;-43
2022/10/05 08:22:46;;;;;;;;;7.00;6.50;;;;;16.68;60.33;101206.06;5096103;27;45489;-43
2022/10/05 08:25:24;;;;;;;;;10.00;7.00;;;;;16.74;60.08;101200.50;5076324;27;47218;-44
2022/10/05 08:28:02;;;;;;;;;8.75;8.75;;;;;16.82;59.96;101200.13;5090142;27;45858;-46
2022/10/05 08:30:29;;;;;;;;;10.50;8.25;;;;;16.87;60.01;101206.97;5075999;27;45400;-44
2022/10/05 08:33:05;;;;;;;;;9.00;9.00;;;;;16.93;59.89;101208.47;5080414;27;45372;-43
2022/10/05 08:35:38;;;;;;;;;9.50;9.00;;;;;16.99;60.10;101204.69;5079372;27;47314;-44
2022/10/05 08:38:11;;;;;;;;;15.75;9.00;;;;;17.04;59.99;101211.47;5076685;27;45544;-43
2022/10/05 08:40:39;;;;;;;;;14.75;12.00;;;;;17.12;60.04;101208.47;5086730;27;45553;-48
2022/10/05 08:43:32;;;;;;;;;17.00;13.00;;;;;17.20;60.00;101208.97;5084356;27;45401;-46
2022/10/05 08:46:12;;;;;;;;;10.00;9.00;;;;;17.26;59.76;101213.97;5088829;27;45884;-46
2022/10/05 08:49:15;;;;;;;;;8.25;6.25;;;;;17.34;59.92;101215.41;5077996;27;45328;-45
2022/10/05 08:51:59;;;;;;;;;5.25;5.00;;;;;17.39;59.93;101213.41;5089671;27;45518;-44
2022/10/05 08:54:36;;;;;;;;;8.00;6.75;;;;;17.43;59.77;101210.50;5086508;27;45369;-44
2022/10/05 08:57:15;;;;;;;;;8.00;5.00;;;;;17.49;59.82;101216.44;5096351;27;45442;-45
2022/10/05 08:59:53;;;;;;;;;8.25;6.00;;;;;17.54;59.65;101219.72;5102653;27;46288;-47
2022/10/05 09:02:54;;;;;;;;;7.00;6.00;;;;;17.59;59.57;101215.06;5097997;27;45781;-46
2022/10/05 09:05:36;;;;;;;;;6.00;6.00;;;;;17.64;59.71;101228.94;5083587;27;45237;-46
2022/10/05 09:08:30;;;;;;;;;7.25;6.00;;;;;17.69;59.47;101231.34;5067312;27;46237;-49
2022/10/05 09:11:03;;;;;;;;;7.50;7.25;;;;;17.73;59.62;101228.50;5090644;27;45403;-45
2022/10/05 09:13:41;;;;;;;;;9.50;5.00;;;;;17.77;59.45;101227.41;5082131;27;45477;-44
2022/10/05 09:16:43;;;;;;;;;6.00;6.00;;;;;17.79;59.60;101219.38;5080617;28;45543;-51
2022/10/05 09:19:31;;;;;;;;;8.50;5.75;;;;;17.82;59.58;101221.88;5080681;28;46202;-46
2022/10/05 09:22:03;;;;;;;;;5.25;5.25;;;;;17.87;59.34;101224.34;5091002;27;45820;-48
2022/10/05 09:24:57;;;;;;;;;8.75;6.25;;;;;17.91;59.28;101226.75;5077734;27;45607;-46
2022/10/05 09:27:38;;;;;;;;;8.00;6.25;;;;;17.93;59.18;101224.88;5080471;28;45422;-46
2022/10/05 09:30:09;;;;;;;;;8.25;6.50;;;;;17.97;58.90;101231.75;5083531;27;47390;-47
2022/10/05 09:33:02;;;;;;;;;8.00;7.00;;;;;17.99;58.93;101229.03;5073438;28;45845;-44
2022/10/05 09:35:27;;;;;;;;;10.75;8.00;;;;;18.01;58.74;101237.75;5091846;27;45179;-44
2022/10/05 09:38:23;;;;;;;;;7.33;7.00;;;;;18.01;58.97;101235.09;5089676;27;45569;-44
2022/10/05 09:41:09;;;;;;;;;9.50;6.00;;;;;18.04;58.63;101232.28;5008367;27;46658;-43
2022/10/05 09:43:53;;;;;;;;;0.00;0.00;;;;;18.08;58.61;101232.97;5102173;27;45511;-45
2022/10/05 09:46:30;;;;;;;;;7.50;6.75;;;;;18.12;58.63;101234.56;5102099;27;45343;-45
2022/10/05 09:49:17;;;;;;;;;8.00;5.50;;;;;18.18;58.48;101236.88;5101976;27;45528;-44
2022/10/05 09:51:51;;;;;;;;;8.75;7.25;;;;;18.24;58.50;101239.25;5100012;27;46504;-47
2022/10/05 09:54:30;;;;;;;;;6.00;5.75;;;;;18.29;58.51;101234.56;5092630;27;45728;-44
2022/10/05 09:57:38;;;;;;;;;3.50;3.25;;;;;18.30;57.72;101233.59;5081928;27;45508;-44
2022/10/05 10:00:21;;;;;;;;;6.50;6.00;;;;;18.32;57.57;101234.38;5099610;27;45511;-44
2022/10/05 10:02:55;;;;;;;;;6.25;6.00;;;;;18.34;57.40;101231.66;5080334;27;47328;-44
2022/10/05 10:05:32;;;;;;;;;7.50;7.00;;;;;18.35;57.40;101228.94;5101223;27;45269;-47
2022/10/05 10:08:19;;;;;;;;;8.00;7.00;;;;;18.35;57.02;101230.72;5101579;27;45540;-43
2022/10/05 10:10:47;;;;;;;;;8.75;8.00;;;;;18.33;56.84;101233.47;5095418;27;45496;-44
2022/10/05 10:13:52;;;;;;;;;7.25;7.25;;;;;18.34;57.23;101234.31;5070680;28;48451;-44
2022/10/05 10:16:39;;;;;;;;;7.25;6.00;;;;;18.35;56.81;101236.03;5099601;27;45708;-48
2022/10/05 10:19:23;;;;;;;;;6.75;5.00;;;;;18.38;56.86;101227.94;5089928;27;45482;-47
2022/10/05 10:22:13;;;;;;;;;4.50;4.00;;;;;18.38;55.69;101220.84;5095841;27;45557;-46
2022/10/05 10:25:18;;;;;;;;;6.00;3.50;;;;;18.42;56.01;101231.28;5097464;27;46503;-44
2022/10/05 10:28:21;;;;;;;;;5.50;5.00;;;;;18.45;55.45;101218.72;5098644;27;45371;-43
2022/10/05 10:31:10;;;;;;;;;10.00;9.00;;;;;18.53;55.68;101218.31;5092723;27;45356;-47
2022/10/05 10:33:54;;;;;;;;;6.25;5.00;;;;;18.61;55.47;101226.72;5079533;27;45370;-47
2022/10/05 10:36:28;;;;;;;;;12.00;11.00;;;;;18.69;55.30;101224.50;5079889;27;47022;-45
2022/10/05 10:39:22;;;;;;;;;11.00;9.00;;;;;18.74;55.02;101225.13;5082946;27;45866;-44
2022/10/05 10:42:00;;;;;;;;;7.00;3.25;;;;;18.74;54.81;101227.78;5100901;27;45169;-45
2022/10/05 10:44:33;;;;;;;;;7.50;5.50;;;;;18.76;53.89;101215.28;5079568;28;45338;-44
2022/10/05 10:47:17;;;;;;;;;5.75;5.00;;;;;18.81;54.46;101225.66;5079339;27;45634;-45
2022/10/05 10:50:10;;;;;;;;;6.00;3.75;;;;;18.90;54.56;101211.06;5100869;27;45784;-45
2022/10/05 10:53:01;;;;;;;;;7.00;3.25;;;;;18.99;54.32;101204.41;5101108;27;45399;-45
2022/10/05 10:55:42;;;;;;;;;2.75;2.75;;;;;19.07;54.09;101204.81;5024934;28;45546;-44
2022/10/05 10:58:42;;;;;;;;;4.25;4.25;;;;;19.12;53.94;101197.47;5100256;27;45567;-42
2022/10/05 11:01:17;;;;;;;;;5.50;5.25;;;;;19.19;53.88;101190.88;5082312;27;45661;-43
2022/10/05 11:04:00;;;;;;;;;6.00;5.00;;;;;19.28;53.77;101193.03;5100144;27;45590;-44
2022/10/05 11:06:38;;;;;;;;;14.75;10.75;;;;;19.37;53.86;101193.44;5088858;27;45610;-44
2022/10/05 11:09:15;;;;;;;;;10.50;10.00;;;;;19.47;53.82;101184.03;5099554;27;45475;-44
2022/10/05 11:12:05;;;;;;;;;7.00;5.50;;;;;19.53;53.06;101170.41;5100551;27;45764;-48
2022/10/05 11:15:09;;;;;;;;;7.00;5.00;;;;;19.57;53.38;101165.78;5082720;27;45280;-44
2022/10/05 11:17:53;;;;;;;;;9.50;8.00;;;;;19.59;52.96;101156.78;5068245;27;45393;-45
2022/10/05 11:20:36;;;;;;;;;13.00;9.75;;;;;19.62;52.65;101156.59;5099219;27;46149;-46
2022/10/05 11:23:13;;;;;;;;;7.00;6.00;;;;;19.64;53.07;101153.88;5100826;27;45629;-44
2022/10/05 11:26:09;;;;;;;;;12.00;11.00;;;;;19.64;53.01;101152.06;5100569;27;45303;-43
2022/10/05 11:28:52;;;;;;;;;12.25;5.00;;;;;19.63;52.70;101147.69;5078758;28;45351;-44
2022/10/05 11:31:55;;;;;;;;;5.00;5.00;;;;;19.64;53.23;101133.47;5093089;27;45378;-44
2022/10/05 11:34:39;;;;;;;;;7.00;5.75;;;;;19.65;53.46;101134.31;5068076;27;45501;-43
2022/10/05 11:37:41;;;;;;;;;4.00;4.00;;;;;19.63;52.36;101142.38;5086237;27;45308;-44
2022/10/05 11:40:15;;;;;;;;;3.25;3.25;;;;;19.60;52.30;101118.69;5099943;27;45305;-43
2022/10/05 11:43:04;;;;;;;;;4.25;3.75;;;;;19.60;52.54;101131.06;5100110;27;45363;-44
2022/10/05 11:45:53;;;;;;;;;4.75;4.25;;;;;19.60;52.28;101131.06;5100315;27;45438;-46
2022/10/05 11:48:25;;;;;;;;;3.25;3.25;;;;;19.62;52.70;101131.81;5078232;28;45334;-44
2022/10/05 11:51:08;;;;;;;;;3.75;3.00;;;;;19.67;52.88;101140.38;5093250;27;45276;-43
2022/10/05 11:53:40;;;;;;;;;6.50;3.25;;;;;19.71;53.16;101133.97;5078892;27;46128;-45
2022/10/05 11:56:17;;;;;;;;;4.00;4.00;;;;;19.75;52.73;101138.19;5085003;27;45430;-44
2022/10/05 11:58:55;;;;;;;;;3.25;3.25;;;;;19.81;52.88;101128.97;5100138;27;45737;-44
2022/10/05 12:01:29;;;;;;;;;4.75;4.75;;;;;19.85;52.68;101125.22;5099794;27;45386;-44
2022/10/05 12:04:06;;;;;;;;;5.00;4.00;;;;;19.89;53.13;101122.28;5086735;27;46513;-45
2022/10/05 12:06:47;;;;;;;;;3.00;3.00;;;;;19.95;52.75;101120.19;5096694;27;45696;-45
2022/10/05 12:10:12;;;;;;;;;4.00;4.00;;;;;19.98;52.74;101125.31;5088585;27;45723;-44
2022/10/05 12:12:36;;;;;;;;;3.00;2.75;;;;;19.99;52.39;101111.97;5021344;27;45688;-46
2022/10/05 12:15:24;;;;;;;;;6.50;4.00;;;;;20.02;52.46;101110.91;5078180;27;46077;-47
2022/10/05 12:18:16;;;;;;;;;5.50;3.00;;;;;20.05;52.35;101111.56;5076424;27;45259;-45
2022/10/05 12:21:00;;;;;;;;;4.25;4.25;;;;;20.10;52.88;101113.97;5066936;27;45391;-42
2022/10/05 12:23:36;;;;;;;;;4.00;4.00;;;;;20.13;52.39;101113.75;5103158;27;45449;-45
2022/10/05 12:26:06;;;;;;;;;8.75;5.25;;;;;20.14;52.83;101118.13;5079585;28;46164;-43